createdAt,value
2018-09-08T00:00:55.568Z,0.00
2018-09-08T00:01:55.537Z,0.00
2018-09-08T00:02:55.528Z,0.00
2018-09-08T00:03:55.518Z,0.00
2018-09-08T00:04:55.502Z,0.00
2018-09-08T00:05:55.525Z,0.00
2018-09-08T00:06:55.481Z,0.00
2018-09-08T00:07:55.478Z,0.00
2018-09-08T00:08:55.464Z,0.00
2018-09-08T00:09:55.461Z,0.00
2018-09-08T00:10:55.513Z,0.00
2018-09-08T00:11:55.427Z,0.00
2018-09-08T00:12:55.416Z,0.00
2018-09-08T00:13:55.414Z,0.00
2018-09-08T00:14:55.399Z,0.00
2018-09-08T00:15:55.430Z,0.00
2018-09-08T00:16:55.381Z,0.00
2018-09-08T00:17:55.366Z,0.00
2018-09-08T00:18:55.353Z,0.00
2018-09-08T00:19:55.351Z,0.00
2018-09-08T00:20:55.369Z,0.00
2018-09-08T00:21:55.332Z,0.00
2018-09-08T00:22:55.319Z,0.00
2018-09-08T00:23:55.303Z,0.00
2018-09-08T00:24:55.296Z,0.00
2018-09-08T00:25:55.303Z,0.00
2018-09-08T00:26:55.266Z,0.00
2018-09-08T00:27:55.256Z,0.00
2018-09-08T00:28:55.251Z,0.00
2018-09-08T00:29:55.262Z,0.00
2018-09-08T00:30:55.221Z,0.00
2018-09-08T00:31:55.240Z,0.00
2018-09-08T00:32:55.209Z,0.00
2018-09-08T00:33:55.193Z,0.00
2018-09-08T00:34:55.194Z,0.00
2018-09-08T00:35:55.169Z,0.00
2018-09-08T00:36:55.187Z,0.00
2018-09-08T00:37:55.173Z,0.00
2018-09-08T00:38:55.137Z,0.00
2018-09-08T00:39:55.127Z,0.00
2018-09-08T00:40:55.115Z,0.00
2018-09-08T00:41:55.137Z,0.00
2018-09-08T00:42:55.097Z,0.00
2018-09-08T00:43:55.089Z,0.00
2018-09-08T00:44:55.097Z,0.00
2018-09-08T00:45:55.177Z,0.00
2018-09-08T00:46:55.059Z,0.00
2018-09-08T00:47:55.069Z,0.00
2018-09-08T00:48:55.060Z,0.00
2018-09-08T00:49:55.019Z,0.00
2018-09-08T00:50:55.012Z,0.00
2018-09-08T00:51:54.999Z,0.00
2018-09-08T00:52:55.023Z,0.00
2018-09-08T00:53:54.980Z,0.00
2018-09-08T00:54:54.968Z,0.00
2018-09-08T00:55:54.960Z,0.00
2018-09-08T00:56:54.982Z,0.00
2018-09-08T00:57:54.933Z,0.00
2018-09-08T00:58:54.946Z,0.00
2018-09-08T00:59:54.912Z,0.00
2018-09-08T01:00:54.912Z,0.00
2018-09-08T01:01:54.937Z,0.00
2018-09-08T01:02:54.892Z,0.00
2018-09-08T01:03:54.982Z,0.00
2018-09-08T01:04:54.874Z,0.00
2018-09-08T01:05:54.848Z,0.00
2018-09-08T01:06:54.842Z,0.00
2018-09-08T01:07:54.831Z,0.00
2018-09-08T01:08:54.839Z,0.00
2018-09-08T01:09:54.806Z,0.00
2018-09-08T01:10:54.800Z,0.00
2018-09-08T01:11:54.792Z,0.00
2018-09-08T01:12:54.800Z,0.00
2018-09-08T01:13:54.805Z,0.00
2018-09-08T01:14:54.762Z,0.00
2018-09-08T01:15:54.743Z,0.00
2018-09-08T01:16:54.737Z,0.00
2018-09-08T01:17:54.725Z,0.00
2018-09-08T01:18:54.734Z,0.00
2018-09-08T01:19:54.725Z,0.00
2018-09-08T01:20:54.691Z,0.00
2018-09-08T01:21:54.685Z,0.00
2018-09-08T01:22:54.670Z,0.00
2018-09-08T01:23:54.687Z,0.00
2018-09-08T01:24:54.647Z,0.00
2018-09-08T01:25:54.641Z,0.00
2018-09-08T01:26:54.629Z,0.00
2018-09-08T01:27:54.625Z,0.00
2018-09-08T01:28:54.602Z,0.00
2018-09-08T01:29:54.642Z,0.00
2018-09-08T01:30:54.586Z,0.00
2018-09-08T01:31:54.578Z,0.00
2018-09-08T01:32:54.560Z,0.00
2018-09-08T01:33:54.560Z,0.00
2018-09-08T01:34:54.565Z,0.00
2018-09-08T01:35:54.533Z,0.00
2018-09-08T01:36:54.541Z,0.00
2018-09-08T01:37:54.510Z,0.00
2018-09-08T01:38:54.498Z,0.00
2018-09-08T01:39:54.524Z,0.00
2018-09-08T01:40:54.475Z,0.00
2018-09-08T01:41:54.466Z,0.00
2018-09-08T01:42:54.453Z,0.00
2018-09-08T01:43:54.444Z,0.00
2018-09-08T01:44:54.432Z,0.00
2018-09-08T01:45:54.454Z,0.00
2018-09-08T01:46:54.421Z,0.00
2018-09-08T01:47:54.400Z,0.00
2018-09-08T01:48:54.390Z,0.00
2018-09-08T01:49:54.387Z,0.00
2018-09-08T01:50:54.425Z,0.00
2018-09-08T01:51:54.362Z,0.00
2018-09-08T01:52:54.355Z,0.00
2018-09-08T01:53:54.337Z,0.00
2018-09-08T01:54:54.330Z,0.00
2018-09-08T01:55:54.349Z,0.00
2018-09-08T01:56:54.317Z,0.00
2018-09-08T01:57:54.307Z,0.00
2018-09-08T01:58:54.288Z,0.00
2018-09-08T01:59:54.272Z,0.00
2018-09-08T02:00:54.297Z,0.00
2018-09-08T02:01:54.269Z,0.00
2018-09-08T02:02:54.240Z,0.00
2018-09-08T02:03:54.238Z,0.00
2018-09-08T02:04:54.226Z,0.00
2018-09-08T02:05:54.234Z,0.00
2018-09-08T02:06:54.222Z,0.00
2018-09-08T02:07:54.187Z,0.00
2018-09-08T02:08:54.176Z,0.00
2018-09-08T02:09:54.174Z,0.00
2018-09-08T02:10:54.161Z,0.00
2018-09-08T02:11:54.169Z,0.00
2018-09-08T02:12:54.134Z,0.00
2018-09-08T02:13:54.138Z,0.00
2018-09-08T02:14:54.117Z,0.00
2018-09-08T02:15:54.109Z,0.00
2018-09-08T02:16:54.126Z,0.00
2018-09-08T02:17:54.088Z,0.00
2018-09-08T02:18:54.074Z,0.00
2018-09-08T02:19:54.069Z,0.00
2018-09-08T02:20:54.067Z,0.00
2018-09-08T02:21:54.083Z,0.00
2018-09-08T02:22:54.028Z,0.00
2018-09-08T02:23:54.021Z,0.00
2018-09-08T02:24:54.019Z,0.00
2018-09-08T02:25:54.008Z,0.00
2018-09-08T02:26:53.990Z,0.00
2018-09-08T02:27:54.000Z,0.00
2018-09-08T02:28:53.969Z,0.00
2018-09-08T02:29:53.959Z,0.00
2018-09-08T02:30:53.960Z,0.00
2018-09-08T02:31:53.933Z,0.00
2018-09-08T02:32:53.949Z,0.00
2018-09-08T02:33:53.912Z,0.00
2018-09-08T02:34:53.903Z,0.00
2018-09-08T02:35:53.904Z,0.00
2018-09-08T02:36:53.886Z,0.00
2018-09-08T02:37:53.899Z,0.00
2018-09-08T02:38:53.859Z,0.00
2018-09-08T02:39:53.847Z,0.00
2018-09-08T02:40:53.840Z,0.00
2018-09-08T02:41:53.832Z,0.00
2018-09-08T02:42:53.858Z,0.00
2018-09-08T02:43:53.813Z,0.00
2018-09-08T02:44:53.815Z,0.00
2018-09-08T02:45:53.803Z,0.00
2018-09-08T02:46:53.780Z,0.00
2018-09-08T02:47:53.788Z,0.00
2018-09-08T02:48:53.758Z,0.00
2018-09-08T02:49:53.741Z,0.00
2018-09-08T02:50:53.729Z,0.00
2018-09-08T02:51:53.718Z,0.00
2018-09-08T02:52:53.740Z,0.00
2018-09-08T02:53:53.753Z,0.00
2018-09-08T02:54:53.686Z,0.00
2018-09-08T02:55:53.682Z,0.00
2018-09-08T02:56:53.670Z,0.00
2018-09-08T02:57:53.683Z,0.00
2018-09-08T02:58:53.648Z,0.00
2018-09-08T02:59:53.649Z,0.00
2018-09-08T03:00:53.624Z,0.00
2018-09-08T03:01:53.615Z,0.00
2018-09-08T03:02:53.634Z,0.00
2018-09-08T03:03:53.592Z,0.00
2018-09-08T03:04:53.586Z,0.00
2018-09-08T03:05:53.570Z,0.00
2018-09-08T03:06:53.570Z,0.00
2018-09-08T03:07:53.590Z,0.00
2018-09-08T03:08:53.554Z,0.00
2018-09-08T03:09:53.527Z,0.00
2018-09-08T03:10:53.527Z,0.00
2018-09-08T03:11:53.518Z,0.00
2018-09-08T03:12:53.504Z,0.00
2018-09-08T03:13:53.521Z,0.00
2018-09-08T03:14:53.487Z,0.00
2018-09-08T03:15:53.473Z,0.00
2018-09-08T03:16:53.457Z,0.00
2018-09-08T03:17:53.441Z,0.00
2018-09-08T03:18:53.455Z,0.00
2018-09-08T03:19:53.428Z,0.00
2018-09-08T03:20:53.410Z,0.00
2018-09-08T03:21:53.406Z,0.00
2018-09-08T03:22:53.412Z,0.00
2018-09-08T03:23:53.414Z,0.00
2018-09-08T03:24:53.368Z,0.00
2018-09-08T03:25:53.366Z,0.00
2018-09-08T03:26:53.348Z,0.00
2018-09-08T03:27:53.340Z,0.00
2018-09-08T03:28:53.354Z,0.00
2018-09-08T03:29:53.318Z,0.00
2018-09-08T03:30:53.305Z,0.00
2018-09-08T03:31:53.302Z,0.00
2018-09-08T03:32:53.286Z,0.00
2018-09-08T03:33:53.273Z,0.00
2018-09-08T03:34:53.286Z,0.00
2018-09-08T03:35:53.276Z,0.00
2018-09-08T03:36:53.251Z,0.00
2018-09-08T03:37:53.246Z,0.00
2018-09-08T03:38:53.222Z,0.00
2018-09-08T03:39:53.236Z,0.00
2018-09-08T03:40:53.203Z,0.00
2018-09-08T03:41:53.189Z,0.00
2018-09-08T03:42:53.176Z,0.00
2018-09-08T03:43:53.164Z,0.00
2018-09-08T03:44:53.177Z,0.00
2018-09-08T03:45:53.145Z,0.00
2018-09-08T03:46:53.153Z,0.00
2018-09-08T03:47:53.133Z,0.00
2018-09-08T03:48:53.110Z,0.00
2018-09-08T03:49:53.130Z,0.00
2018-09-08T03:50:53.099Z,0.00
2018-09-08T03:51:53.079Z,0.00
2018-09-08T03:52:53.075Z,0.00
2018-09-08T03:53:53.070Z,0.00
2018-09-08T03:54:53.047Z,0.00
2018-09-08T03:55:53.068Z,0.00
2018-09-08T03:56:53.027Z,0.00
2018-09-08T03:57:53.018Z,0.00
2018-09-08T03:58:53.055Z,0.00
2018-09-08T03:59:53.000Z,0.00
2018-09-08T04:00:53.009Z,0.00
2018-09-08T04:01:52.982Z,0.00
2018-09-08T04:02:52.963Z,0.00
2018-09-08T04:03:52.952Z,0.00
2018-09-08T04:04:52.945Z,0.00
2018-09-08T04:05:52.955Z,0.00
2018-09-08T04:06:52.922Z,0.00
2018-09-08T04:07:52.909Z,0.00
2018-09-08T04:08:52.898Z,0.00
2018-09-08T04:09:52.935Z,0.00
2018-09-08T04:10:52.907Z,0.00
2018-09-08T04:11:52.868Z,0.00
2018-09-08T04:12:52.869Z,0.00
2018-09-08T04:13:52.851Z,0.00
2018-09-08T04:14:52.846Z,0.00
2018-09-08T04:15:52.858Z,0.00
2018-09-08T04:16:52.813Z,0.00
2018-09-08T04:17:52.801Z,0.00
2018-09-08T04:18:52.794Z,0.00
2018-09-08T04:19:52.791Z,0.00
2018-09-08T04:20:52.781Z,0.00
2018-09-08T04:21:52.785Z,0.00
2018-09-08T04:22:52.753Z,0.00
2018-09-08T04:23:52.796Z,0.00
2018-09-08T04:24:52.756Z,4.00
2018-09-08T04:25:52.716Z,0.00
2018-09-08T04:26:52.734Z,4.00
2018-09-08T04:27:52.697Z,4.00
2018-09-08T04:28:52.688Z,4.00
2018-09-08T04:29:52.673Z,4.00
2018-09-08T04:30:52.674Z,8.00
2018-09-08T04:31:52.655Z,8.00
2018-09-08T04:32:52.674Z,8.00
2018-09-08T04:33:52.633Z,8.00
2018-09-08T04:34:52.624Z,12.00
2018-09-08T04:35:52.615Z,12.00
2018-09-08T04:36:52.600Z,20.00
2018-09-08T04:37:52.614Z,20.00
2018-09-08T04:38:52.578Z,24.00
2018-09-08T04:39:52.570Z,28.00
2018-09-08T04:40:52.577Z,32.00
2018-09-08T04:41:52.545Z,36.00
2018-09-08T04:42:52.569Z,44.00
2018-09-08T04:43:52.529Z,52.00
2018-09-08T04:44:52.569Z,56.00
2018-09-08T04:45:52.503Z,64.00
2018-09-08T04:46:52.496Z,76.00
2018-09-08T04:47:52.511Z,88.00
2018-09-08T04:48:52.476Z,96.00
2018-09-08T04:49:52.459Z,108.00
2018-09-08T04:50:52.449Z,120.00
2018-09-08T04:51:52.445Z,136.00
2018-09-08T04:52:52.459Z,148.00
2018-09-08T04:53:52.420Z,164.00
2018-09-08T04:54:52.425Z,180.00
2018-09-08T04:55:52.399Z,200.00
2018-09-08T04:56:52.391Z,216.00
2018-09-08T04:57:52.377Z,240.00
2018-09-08T04:58:52.403Z,260.00
2018-09-08T04:59:52.406Z,280.00
2018-09-08T05:00:52.346Z,300.00
2018-09-08T05:01:52.335Z,324.00
2018-09-08T05:02:52.330Z,352.00
2018-09-08T05:03:52.347Z,376.00
2018-09-08T05:04:52.304Z,404.00
2018-09-08T05:05:52.299Z,428.00
2018-09-08T05:06:52.279Z,460.00
2018-09-08T05:07:52.267Z,488.00
2018-09-08T05:08:52.323Z,520.00
2018-09-08T05:09:52.250Z,548.00
2018-09-08T05:10:52.236Z,580.00
2018-09-08T05:11:52.229Z,608.00
2018-09-08T05:12:52.224Z,644.00
2018-09-08T05:13:52.236Z,672.00
2018-09-08T05:14:52.199Z,708.00
2018-09-08T05:15:52.183Z,740.00
2018-09-08T05:16:52.175Z,768.00
2018-09-08T05:17:52.160Z,808.00
2018-09-08T05:18:52.189Z,840.00
2018-09-08T05:19:52.141Z,872.00
2018-09-08T05:20:52.141Z,908.00
2018-09-08T05:21:52.127Z,944.00
2018-09-08T05:22:52.109Z,976.00
2018-09-08T05:23:52.102Z,1012.00
2018-09-08T05:24:52.109Z,1040.00
2018-09-08T05:25:52.078Z,1076.00
2018-09-08T05:26:52.065Z,1104.00
2018-09-08T05:27:52.055Z,1136.00
2018-09-08T05:28:52.043Z,1168.00
2018-09-08T05:29:52.109Z,1200.00
2018-09-08T05:30:52.021Z,1232.00
2018-09-08T05:31:52.011Z,1264.00
2018-09-08T05:32:51.998Z,1300.00
2018-09-08T05:33:51.988Z,1328.00
2018-09-08T05:34:52.029Z,1356.00
2018-09-08T05:35:51.976Z,1388.00
2018-09-08T05:36:51.956Z,1420.00
2018-09-08T05:37:51.947Z,1456.00
2018-09-08T05:38:51.941Z,1492.00
2018-09-08T05:39:51.954Z,1524.00
2018-09-08T05:40:51.914Z,1564.00
2018-09-08T05:41:51.905Z,1596.00
2018-09-08T05:42:51.957Z,1632.00
2018-09-08T05:43:51.880Z,1668.00
2018-09-08T05:44:51.904Z,1696.00
2018-09-08T05:45:51.900Z,1732.00
2018-09-08T05:46:51.855Z,1776.00
2018-09-08T05:47:51.846Z,1816.00
2018-09-08T05:48:51.883Z,1860.00
2018-09-08T05:49:51.824Z,1908.00
2018-09-08T05:50:51.840Z,1948.00
2018-09-08T05:51:51.798Z,1992.00
2018-09-08T05:52:51.793Z,2036.00
2018-09-08T05:53:51.774Z,2080.00
2018-09-08T05:54:51.767Z,2112.00
2018-09-08T05:55:51.778Z,2156.00
2018-09-08T05:56:51.747Z,2184.00
2018-09-08T05:57:51.733Z,2220.00
2018-09-08T05:58:51.720Z,2252.00
2018-09-08T05:59:51.715Z,2280.00
2018-09-08T06:00:51.741Z,2304.00
2018-09-08T06:01:51.691Z,2332.00
2018-09-08T06:02:51.682Z,2348.00
2018-09-08T06:03:51.668Z,2376.00
2018-09-08T06:04:51.656Z,2404.00
2018-09-08T06:05:51.647Z,2428.00
2018-09-08T06:06:51.665Z,2452.00
2018-09-08T06:07:51.627Z,2472.00
2018-09-08T06:08:51.616Z,2496.00
2018-09-08T06:09:51.604Z,2524.00
2018-09-08T06:10:51.594Z,2536.00
2018-09-08T06:11:51.615Z,2556.00
2018-09-08T06:12:51.574Z,2576.00
2018-09-08T06:13:51.560Z,2608.00
2018-09-08T06:14:51.553Z,2624.00
2018-09-08T06:15:51.537Z,2652.00
2018-09-08T06:16:51.529Z,2684.00
2018-09-08T06:17:51.542Z,2724.00
2018-09-08T06:18:51.510Z,2740.00
2018-09-08T06:19:51.497Z,2812.00
2018-09-08T06:20:51.496Z,2900.00
2018-09-08T06:21:51.479Z,3096.00
2018-09-08T06:22:51.489Z,3080.00
2018-09-08T06:23:51.455Z,2832.00
2018-09-08T06:24:51.444Z,2832.00
2018-09-08T06:25:51.431Z,2876.00
2018-09-08T06:26:51.421Z,2924.00
2018-09-08T06:27:51.434Z,3016.00
2018-09-08T06:28:51.402Z,3160.00
2018-09-08T06:29:51.391Z,3416.00
2018-09-08T06:30:51.379Z,3988.00
2018-09-08T06:31:51.447Z,4220.00
2018-09-08T06:32:51.380Z,3104.00
2018-09-08T06:33:51.427Z,3192.00
2018-09-08T06:34:51.351Z,3928.00
2018-09-08T06:35:51.323Z,6524.00
2018-09-08T06:36:51.328Z,9324.00
2018-09-08T06:37:51.333Z,9396.00
2018-09-08T06:38:51.293Z,8544.00
2018-09-08T06:39:51.282Z,6996.00
2018-09-08T06:40:51.273Z,6644.00
2018-09-08T06:41:51.259Z,8152.00
2018-09-08T06:42:51.281Z,10192.00
2018-09-08T06:43:51.241Z,11208.00
2018-09-08T06:44:51.327Z,11412.00
2018-09-08T06:45:51.216Z,10364.00
2018-09-08T06:46:51.205Z,9684.00
2018-09-08T06:47:51.195Z,10984.00
2018-09-08T06:48:51.207Z,11184.00
2018-09-08T06:49:51.177Z,18240.00
2018-09-08T06:50:51.163Z,19264.00
2018-09-08T06:51:51.152Z,20320.00
2018-09-08T06:52:51.143Z,21088.00
2018-09-08T06:53:51.159Z,21952.00
2018-09-08T06:54:51.137Z,22144.00
2018-09-08T06:55:51.109Z,22592.00
2018-09-08T06:56:51.097Z,23200.00
2018-09-08T06:57:51.143Z,22016.00
2018-09-08T06:58:51.105Z,18368.00
2018-09-08T06:59:51.076Z,11164.00
2018-09-08T07:00:51.063Z,4860.00
2018-09-08T07:01:51.048Z,4208.00
2018-09-08T07:02:51.033Z,3992.00
2018-09-08T07:03:51.026Z,3812.00
2018-09-08T07:04:51.035Z,3620.00
2018-09-08T07:05:51.000Z,3504.00
2018-09-08T07:06:50.990Z,3432.00
2018-09-08T07:07:50.982Z,3352.00
2018-09-08T07:08:50.969Z,3352.00
2018-09-08T07:09:50.998Z,3396.00
2018-09-08T07:10:50.951Z,3368.00
2018-09-08T07:11:50.940Z,3408.00
2018-09-08T07:12:50.929Z,3516.00
2018-09-08T07:13:50.915Z,3644.00
2018-09-08T07:14:50.937Z,3744.00
2018-09-08T07:15:50.896Z,3856.00
2018-09-08T07:16:50.883Z,4008.00
2018-09-08T07:17:50.871Z,4208.00
2018-09-08T07:18:50.862Z,4348.00
2018-09-08T07:19:50.849Z,4412.00
2018-09-08T07:20:50.865Z,4428.00
2018-09-08T07:21:50.831Z,4484.00
2018-09-08T07:22:50.817Z,4504.00
2018-09-08T07:23:50.807Z,4504.00
2018-09-08T07:24:50.824Z,4448.00
2018-09-08T07:25:50.809Z,4392.00
2018-09-08T07:26:50.774Z,4376.00
2018-09-08T07:27:50.763Z,4320.00
2018-09-08T07:28:50.759Z,4284.00
2018-09-08T07:29:50.743Z,4288.00
2018-09-08T07:30:50.759Z,4176.00
2018-09-08T07:31:50.781Z,4152.00
2018-09-08T07:32:50.715Z,4104.00
2018-09-08T07:33:50.701Z,4108.00
2018-09-08T07:34:50.693Z,4252.00
2018-09-08T07:35:50.710Z,4404.00
2018-09-08T07:36:50.665Z,4604.00
2018-09-08T07:37:50.653Z,4876.00
2018-09-08T07:38:50.651Z,5152.00
2018-09-08T07:39:50.631Z,5360.00
2018-09-08T07:40:50.621Z,5384.00
2018-09-08T07:41:50.634Z,5484.00
2018-09-08T07:42:50.600Z,5580.00
2018-09-08T07:43:50.597Z,5564.00
2018-09-08T07:44:50.583Z,5412.00
2018-09-08T07:45:50.625Z,5696.00
2018-09-08T07:46:50.581Z,6044.00
2018-09-08T07:47:50.546Z,6268.00
2018-09-08T07:48:50.538Z,6400.00
2018-09-08T07:49:50.525Z,6500.00
2018-09-08T07:50:50.515Z,6576.00
2018-09-08T07:51:50.529Z,6380.00
2018-09-08T07:52:50.493Z,6328.00
2018-09-08T07:53:50.494Z,6224.00
2018-09-08T07:54:50.470Z,6112.00
2018-09-08T07:55:50.461Z,6196.00
2018-09-08T07:56:50.476Z,6388.00
2018-09-08T07:57:50.445Z,6364.00
2018-09-08T07:58:50.428Z,6380.00
2018-09-08T07:59:50.419Z,6432.00
2018-09-08T08:00:50.407Z,6528.00
2018-09-08T08:01:50.428Z,6676.00
2018-09-08T08:02:50.396Z,6764.00
2018-09-08T08:03:50.373Z,6872.00
2018-09-08T08:04:50.387Z,6912.00
2018-09-08T08:05:50.353Z,6868.00
2018-09-08T08:06:50.446Z,6844.00
2018-09-08T08:07:50.338Z,6836.00
2018-09-08T08:08:50.324Z,6888.00
2018-09-08T08:09:50.312Z,6884.00
2018-09-08T08:10:50.304Z,6720.00
2018-09-08T08:11:50.290Z,7032.00
2018-09-08T08:12:50.307Z,7188.00
2018-09-08T08:13:50.271Z,7056.00
2018-09-08T08:14:50.269Z,6908.00
2018-09-08T08:15:50.247Z,6960.00
2018-09-08T08:16:50.240Z,7244.00
2018-09-08T08:17:50.253Z,7296.00
2018-09-08T08:18:50.214Z,7336.00
2018-09-08T08:19:50.201Z,7376.00
2018-09-08T08:20:50.192Z,7368.00
2018-09-08T08:21:50.184Z,7644.00
2018-09-08T08:22:50.203Z,7668.00
2018-09-08T08:23:50.158Z,7752.00
2018-09-08T08:24:50.175Z,7756.00
2018-09-08T08:25:50.137Z,7812.00
2018-09-08T08:26:50.131Z,7876.00
2018-09-08T08:27:50.133Z,7920.00
2018-09-08T08:28:50.146Z,7884.00
2018-09-08T08:29:50.093Z,7740.00
2018-09-08T08:30:50.084Z,7720.00
2018-09-08T08:31:50.074Z,7832.00
2018-09-08T08:32:50.063Z,7820.00
2018-09-08T08:33:50.075Z,7836.00
2018-09-08T08:34:50.040Z,8060.00
2018-09-08T08:35:50.033Z,8240.00
2018-09-08T08:36:50.023Z,8404.00
2018-09-08T08:37:50.009Z,8584.00
2018-09-08T08:38:50.025Z,8848.00
2018-09-08T08:39:49.987Z,9100.00
2018-09-08T08:40:49.980Z,9120.00
2018-09-08T08:41:49.964Z,9260.00
2018-09-08T08:42:49.954Z,9432.00
2018-09-08T08:43:49.967Z,9160.00
2018-09-08T08:44:49.931Z,8836.00
2018-09-08T08:45:49.921Z,8648.00
2018-09-08T08:46:49.911Z,8408.00
2018-09-08T08:47:49.912Z,8148.00
2018-09-08T08:48:49.917Z,8012.00
2018-09-08T08:49:49.997Z,7764.00
2018-09-08T08:50:49.871Z,7628.00
2018-09-08T08:51:49.869Z,7728.00
2018-09-08T08:52:49.849Z,7576.00
2018-09-08T08:53:49.877Z,7528.00
2018-09-08T08:54:49.827Z,7576.00
2018-09-08T08:55:49.917Z,7476.00
2018-09-08T08:56:49.805Z,7984.00
2018-09-08T08:57:49.795Z,8172.00
2018-09-08T08:58:49.794Z,8372.00
2018-09-08T08:59:49.799Z,8428.00
2018-09-08T09:00:49.771Z,8560.00
2018-09-08T09:01:49.752Z,8636.00
2018-09-08T09:02:49.746Z,8580.00
2018-09-08T09:03:49.732Z,8452.00
2018-09-08T09:04:49.790Z,8248.00
2018-09-08T09:05:49.710Z,7996.00
2018-09-08T09:06:49.695Z,7696.00
2018-09-08T09:07:49.690Z,7440.00
2018-09-08T09:08:50.128Z,7228.00
2018-09-08T09:09:49.691Z,7256.00
2018-09-08T09:10:49.704Z,7680.00
2018-09-08T09:11:49.970Z,8316.00
2018-09-08T09:12:49.690Z,9000.00
2018-09-08T09:13:49.622Z,9556.00
2018-09-08T09:14:49.637Z,9884.00
2018-09-08T09:15:49.600Z,9684.00
2018-09-08T09:16:49.589Z,9180.00
2018-09-08T09:17:49.620Z,8636.00
2018-09-08T09:18:49.941Z,7884.00
2018-09-08T09:19:49.687Z,7320.00
2018-09-08T09:20:49.553Z,6820.00
2018-09-08T09:21:49.533Z,6380.00
2018-09-08T09:22:49.532Z,5780.00
2018-09-08T09:23:49.513Z,5320.00
2018-09-08T09:24:50.062Z,4844.00
2018-09-08T09:25:49.491Z,4896.00
2018-09-08T09:26:49.482Z,5052.00
2018-09-08T09:27:49.474Z,5108.00
2018-09-08T09:28:49.462Z,5304.00
2018-09-08T09:29:49.515Z,5908.00
2018-09-08T09:30:49.454Z,6664.00
2018-09-08T09:31:49.426Z,6892.00
2018-09-08T09:32:49.448Z,7164.00
2018-09-08T09:33:49.405Z,7208.00
2018-09-08T09:34:49.431Z,7344.00
2018-09-08T09:35:49.383Z,7336.00
2018-09-08T09:36:49.373Z,7208.00
2018-09-08T09:37:49.364Z,6988.00
2018-09-08T09:38:49.354Z,6736.00
2018-09-08T09:39:49.342Z,6568.00
2018-09-08T09:40:49.359Z,6440.00
2018-09-08T09:41:49.328Z,6308.00
2018-09-08T09:42:49.305Z,6240.00
2018-09-08T09:43:49.340Z,6284.00
2018-09-08T09:44:49.308Z,6196.00
2018-09-08T09:45:49.306Z,6276.00
2018-09-08T09:46:49.261Z,6360.00
2018-09-08T09:47:49.253Z,6436.00
2018-09-08T09:48:49.241Z,6532.00
2018-09-08T09:49:49.236Z,6260.00
2018-09-08T09:50:49.242Z,6000.00
2018-09-08T09:51:49.207Z,6484.00
2018-09-08T09:52:49.200Z,7876.00
2018-09-08T09:53:49.185Z,8944.00
2018-09-08T09:54:49.178Z,9312.00
2018-09-08T09:55:49.195Z,9276.00
2018-09-08T09:56:49.155Z,9420.00
2018-09-08T09:57:49.146Z,9152.00
2018-09-08T09:58:49.135Z,10076.00
2018-09-08T09:59:49.127Z,10444.00
2018-09-08T10:00:49.140Z,10760.00
2018-09-08T10:01:49.101Z,10764.00
2018-09-08T10:02:49.102Z,10144.00
2018-09-08T10:03:49.078Z,8864.00
2018-09-08T10:04:49.080Z,8036.00
2018-09-08T10:05:49.083Z,7344.00
2018-09-08T10:06:49.045Z,6724.00
2018-09-08T10:07:49.049Z,6144.00
2018-09-08T10:08:49.024Z,5952.00
2018-09-08T10:09:49.015Z,5772.00
2018-09-08T10:10:49.029Z,5928.00
2018-09-08T10:11:48.992Z,6444.00
2018-09-08T10:12:48.994Z,6596.00
2018-09-08T10:13:48.973Z,6564.00
2018-09-08T10:14:48.964Z,6536.00
2018-09-08T10:15:48.974Z,6756.00
2018-09-08T10:16:48.938Z,7352.00
2018-09-08T10:17:48.935Z,7324.00
2018-09-08T10:18:48.916Z,8372.00
2018-09-08T10:19:48.912Z,7716.00
2018-09-08T10:20:48.921Z,6608.00
2018-09-08T10:21:48.896Z,5656.00
2018-09-08T10:22:48.891Z,5080.00
2018-09-08T10:24:04.339Z,4936.00
2018-09-08T10:24:48.855Z,4828.00
2018-09-08T10:25:48.873Z,4612.00
2018-09-08T10:26:48.836Z,4540.00
2018-09-08T10:27:48.835Z,4616.00
2018-09-08T10:28:48.814Z,4652.00
2018-09-08T10:29:49.161Z,4748.00
2018-09-08T10:30:48.813Z,4772.00
2018-09-08T10:31:49.295Z,4852.00
2018-09-08T10:32:48.770Z,4828.00
2018-09-08T10:33:48.757Z,4812.00
2018-09-08T10:34:48.766Z,4704.00
2018-09-08T10:35:48.760Z,4544.00
2018-09-08T10:36:48.728Z,4800.00
2018-09-08T10:37:48.715Z,5012.00
2018-09-08T10:38:48.722Z,5192.00
2018-09-08T10:39:48.696Z,5584.00
2018-09-08T10:40:48.706Z,5932.00
2018-09-08T10:41:48.674Z,6208.00
2018-09-08T10:42:48.661Z,5916.00
2018-09-08T10:43:48.649Z,5772.00
2018-09-08T10:44:48.641Z,6392.00
2018-09-08T10:45:48.654Z,7328.00
2018-09-08T10:46:48.617Z,8240.00
2018-09-08T10:47:48.608Z,8048.00
2018-09-08T10:48:48.628Z,7560.00
2018-09-08T10:49:48.600Z,6644.00
2018-09-08T10:50:48.636Z,5964.00
2018-09-08T10:51:48.602Z,5480.00
2018-09-08T10:52:48.558Z,5124.00
2018-09-08T10:53:48.547Z,4860.00
2018-09-08T10:54:48.533Z,4840.00
2018-09-08T10:55:48.529Z,5384.00
2018-09-08T10:56:48.565Z,6580.00
2018-09-08T10:57:48.562Z,7548.00
2018-09-08T10:58:48.496Z,7660.00
2018-09-08T10:59:48.491Z,7436.00
2018-09-08T11:00:48.473Z,7628.00
2018-09-08T11:01:48.605Z,7836.00
2018-09-08T11:02:48.731Z,8144.00
2018-09-08T11:03:48.512Z,8264.00
2018-09-08T11:04:48.429Z,8208.00
2018-09-08T11:05:48.418Z,8264.00
2018-09-08T11:06:48.407Z,7964.00
2018-09-08T11:07:48.436Z,7388.00
2018-09-08T11:08:48.384Z,7840.00
2018-09-08T11:09:48.379Z,8036.00
2018-09-08T11:10:48.365Z,8492.00
2018-09-08T11:11:48.350Z,8460.00
2018-09-08T11:12:48.368Z,8948.00
2018-09-08T11:13:48.337Z,8840.00
2018-09-08T11:14:48.329Z,7996.00
2018-09-08T11:15:48.344Z,7408.00
2018-09-08T11:16:48.304Z,6700.00
2018-09-08T11:17:48.312Z,6336.00
2018-09-08T11:18:48.366Z,6456.00
2018-09-08T11:19:48.266Z,6900.00
2018-09-08T11:20:48.256Z,7300.00
2018-09-08T11:21:48.245Z,7424.00
2018-09-08T11:22:48.263Z,7944.00
2018-09-08T11:23:48.252Z,8252.00
2018-09-08T11:24:48.219Z,7900.00
2018-09-08T11:25:48.286Z,7564.00
2018-09-08T11:26:48.191Z,7352.00
2018-09-08T11:27:48.216Z,8456.00
2018-09-08T11:28:48.169Z,9992.00
2018-09-08T11:29:48.157Z,10852.00
2018-09-08T11:30:48.151Z,11280.00
2018-09-08T11:31:48.137Z,11628.00
2018-09-08T11:32:48.125Z,11552.00
2018-09-08T11:33:48.140Z,11440.00
2018-09-08T11:34:48.105Z,10040.00
2018-09-08T11:35:48.094Z,9936.00
2018-09-08T11:36:48.082Z,9376.00
2018-09-08T11:37:48.074Z,8960.00
2018-09-08T11:38:48.096Z,9224.00
2018-09-08T11:39:48.051Z,10100.00
2018-09-08T11:40:48.055Z,11072.00
2018-09-08T11:41:48.030Z,11348.00
2018-09-08T11:42:48.019Z,12172.00
2018-09-08T11:43:48.058Z,12400.00
2018-09-08T11:44:48.017Z,12320.00
2018-09-08T11:45:47.992Z,12336.00
2018-09-08T11:46:47.975Z,12300.00
2018-09-08T11:47:47.967Z,12116.00
2018-09-08T11:48:47.983Z,14128.00
2018-09-08T11:49:47.944Z,17472.00
2018-09-08T11:50:47.934Z,45216.00
2018-09-08T11:51:47.924Z,74880.00
2018-09-08T11:52:47.976Z,81600.00
2018-09-08T11:53:47.933Z,83840.00
2018-09-08T11:54:47.891Z,15024.00
2018-09-08T11:55:47.880Z,14588.00
2018-09-08T11:56:47.870Z,30720.00
2018-09-08T11:57:47.859Z,9412.00
2018-09-08T11:58:47.849Z,8692.00
2018-09-08T11:59:47.863Z,8428.00
2018-09-08T12:00:47.828Z,10720.00
2018-09-08T12:01:47.816Z,18112.00
2018-09-08T12:02:47.812Z,9672.00
2018-09-08T12:03:47.797Z,15048.00
2018-09-08T12:04:47.808Z,81120.00
2018-09-08T12:05:47.776Z,82912.00
2018-09-08T12:06:47.765Z,84128.00
2018-09-08T12:07:47.754Z,45536.00
2018-09-08T12:08:47.744Z,16832.00
2018-09-08T12:09:47.755Z,10120.00
2018-09-08T12:10:47.780Z,57504.00
2018-09-08T12:11:47.719Z,27360.00
2018-09-08T12:12:47.701Z,76224.00
2018-09-08T12:13:47.725Z,21568.00
2018-09-08T12:14:47.705Z,38784.00
2018-09-08T12:15:47.669Z,12700.00
2018-09-08T12:16:47.664Z,10212.00
2018-09-08T12:17:47.658Z,8076.00
2018-09-08T12:18:47.638Z,10344.00
2018-09-08T12:19:47.659Z,31200.00
2018-09-08T12:20:47.617Z,15248.00
2018-09-08T12:21:47.608Z,61216.00
2018-09-08T12:22:47.600Z,8384.00
2018-09-08T12:23:47.588Z,8020.00
2018-09-08T12:24:47.574Z,7848.00
2018-09-08T12:25:47.593Z,7600.00
2018-09-08T12:26:47.554Z,7628.00
2018-09-08T12:27:47.542Z,7800.00
2018-09-08T12:28:47.534Z,8228.00
2018-09-08T12:29:47.525Z,8220.00
2018-09-08T12:30:47.602Z,36896.00